Time;durP1;ratioP1;P1;durP2;ratioP2;P2;SDS_P1;SDS_P2;PMS_P1;PMS_P2;Temp;Humidity;BMP_temperature;BMP_pressure;BME280_temperature;BME280_humidity;BME280_pressure;Samples;Min_cycle;Max_cycle;Signal;HPM_P1;HPM_P2
2021/03/04 00:00:00;;;;;;;;;;;153.70;1689.60;;;;;;5130266;27;19915;-81
2021/03/04 00:02:26;;;;;;;;;;;128.70;1715.20;;;;;;5095962;28;20265;-81
2021/03/04 00:04:51;;;;;;;;;;;128.20;1740.80;;;;;;5116463;28;19926;-80
2021/03/04 00:07:17;;;;;;;;;;;128.10;1766.40;;;;;;5116866;28;19908;-81
2021/03/04 00:09:42;;;;;;;;;;;103.20;1766.40;;;;;;5114196;28;20285;-81
2021/03/04 00:12:08;;;;;;;;;;;103.10;1792.00;;;;;;5117061;28;19904;-81
2021/03/04 00:14:34;;;;;;;;;;;102.90;1817.60;;;;;;5116658;28;19916;-82
2021/03/04 00:16:59;;;;;;;;;;;102.90;1843.20;;;;;;5113871;28;19950;-81
2021/03/04 00:19:25;;;;;;;;;;;102.60;1894.40;;;;;;5112127;28;19908;-81
2021/03/04 00:21:50;;;;;;;;;;;102.60;1894.40;;;;;;5114900;28;19903;-80
2021/03/04 00:24:16;;;;;;;;;;;102.60;1920.00;;;;;;5116079;28;19915;-81
2021/03/04 00:26:42;;;;;;;;;;;102.60;1894.40;;;;;;5116221;28;20427;-79
2021/03/04 00:29:07;;;;;;;;;;;102.60;1894.40;;;;;;5112377;28;20418;-81
2021/03/04 00:31:33;;;;;;;;;;;102.60;1894.40;;;;;;5116196;28;20002;-81
2021/03/04 00:33:59;;;;;;;;;;;102.80;1894.40;;;;;;5116155;28;19973;-80
2021/03/04 00:36:24;;;;;;;;;;;102.60;1868.80;;;;;;5095620;28;19943;-80
2021/03/04 00:38:50;;;;;;;;;;;102.50;1868.80;;;;;;5097889;28;20005;-79
2021/03/04 00:41:15;;;;;;;;;;;102.50;1868.80;;;;;;5115984;28;19910;-79
2021/03/04 00:43:41;;;;;;;;;;;102.60;1868.80;;;;;;5116065;28;19904;-80
2021/03/04 00:46:06;;;;;;;;;;;102.70;1843.20;;;;;;5115681;28;19927;-81
2021/03/04 00:48:32;;;;;;;;;;;102.90;1817.60;;;;;;5115908;28;20405;-80
2021/03/04 00:50:57;;;;;;;;;;;103.00;1817.60;;;;;;5116023;28;19910;-81
2021/03/04 00:53:23;;;;;;;;;;;103.10;1792.00;;;;;;5111126;28;19923;-80
2021/03/04 00:55:49;;;;;;;;;;;103.20;1766.40;;;;;;5130238;27;19954;-81
2021/03/04 00:58:14;;;;;;;;;;;103.30;1766.40;;;;;;5115635;28;20361;-81
2021/03/04 01:00:40;;;;;;;;;;;103.10;1766.40;;;;;;5097647;28;20018;-81
2021/03/04 01:03:05;;;;;;;;;;;102.80;1817.60;;;;;;5112421;28;19915;-81
2021/03/04 01:05:31;;;;;;;;;;;102.70;1843.20;;;;;;5115423;28;19916;-80
2021/03/04 01:07:57;;;;;;;;;;;102.80;1843.20;;;;;;5115628;28;19918;-81
2021/03/04 01:10:33;;;;;;;;;;;102.90;1817.60;;;;;;5097607;28;20265;-81
2021/03/04 01:12:59;;;;;;;;;;;103.10;1792.00;;;;;;5097199;28;19910;-80
2021/03/04 01:15:25;;;;;;;;;;;102.90;1792.00;;;;;;5115434;28;19904;-81
2021/03/04 01:17:51;;;;;;;;;;;102.80;1817.60;;;;;;5110089;28;19907;-80
2021/03/04 01:20:17;;;;;;;;;;;102.90;1792.00;;;;;;5097229;28;19991;-81
2021/03/04 01:22:43;;;;;;;;;;;103.00;1792.00;;;;;;5115441;28;20386;-81
2021/03/04 01:25:08;;;;;;;;;;;103.10;1817.60;;;;;;5122362;27;19995;-81
2021/03/04 01:27:35;;;;;;;;;;;103.00;1817.60;;;;;;5113975;28;19998;-81
2021/03/04 01:30:00;;;;;;;;;;;103.00;1817.60;;;;;;5115010;28;19908;-81
2021/03/04 01:32:26;;;;;;;;;;;103.00;1817.60;;;;;;5114947;28;20394;-80
2021/03/04 01:34:51;;;;;;;;;;;103.10;1792.00;;;;;;5096565;28;20400;-79
2021/03/04 01:37:17;;;;;;;;;;;102.90;1817.60;;;;;;5108678;28;20284;-78
2021/03/04 01:39:42;;;;;;;;;;;102.60;1843.20;;;;;;5114776;28;19991;-79
2021/03/04 01:42:08;;;;;;;;;;;102.50;1894.40;;;;;;5114659;28;20258;-80
2021/03/04 01:44:33;;;;;;;;;;;102.50;1868.80;;;;;;5096533;28;19968;-80
2021/03/04 01:46:59;;;;;;;;;;;102.50;1894.40;;;;;;5096588;28;19904;-80
2021/03/04 01:49:25;;;;;;;;;;;102.60;1894.40;;;;;;5114499;28;19910;-80
2021/03/04 01:51:51;;;;;;;;;;;102.50;1894.40;;;;;;5096351;28;19914;-80
2021/03/04 01:54:17;;;;;;;;;;;77.70;1920.00;;;;;;5114509;28;19919;-80
2021/03/04 01:56:43;;;;;;;;;;;77.60;1945.60;;;;;;5114447;28;19957;-79
2021/03/04 01:59:09;;;;;;;;;;;77.60;1945.60;;;;;;5114297;28;19947;-80
2021/03/04 02:01:34;;;;;;;;;;;77.60;1945.60;;;;;;5114393;28;20315;-80
2021/03/04 02:04:00;;;;;;;;;;;77.50;1945.60;;;;;;5128969;27;19991;-80
2021/03/04 02:06:31;;;;;;;;;;;77.60;1945.60;;;;;;5114457;28;19960;-80
2021/03/04 02:09:00;;;;;;;;;;;77.50;1945.60;;;;;;5111524;28;19986;-80
2021/03/04 02:11:28;;;;;;;;;;;77.50;1971.20;;;;;;5114265;28;19957;-80
2021/03/04 02:14:01;;;;;;;;;;;77.50;1971.20;;;;;;5090433;28;19912;-80
2021/03/04 02:16:35;;;;;;;;;;;77.50;1971.20;;;;;;5094897;28;19903;-80
2021/03/04 02:19:05;;;;;;;;;;;77.70;1945.60;;;;;;5114194;28;19907;-80
2021/03/04 02:21:36;;;;;;;;;;;102.50;1920.00;;;;;;5123872;27;19928;-80
2021/03/04 02:24:01;;;;;;;;;;;102.70;1920.00;;;;;;5113956;28;19904;-80
2021/03/04 02:26:36;;;;;;;;;;;102.70;1920.00;;;;;;5113934;28;19910;-80
2021/03/04 02:29:02;;;;;;;;;;;102.60;1920.00;;;;;;5127146;27;19904;-80
2021/03/04 02:31:29;;;;;;;;;;;102.80;1920.00;;;;;;5095640;28;19904;-80
2021/03/04 02:33:55;;;;;;;;;;;102.70;1920.00;;;;;;5089058;28;19962;-80
2021/03/04 02:36:22;;;;;;;;;;;102.60;1920.00;;;;;;5112148;28;19911;-80
2021/03/04 02:38:48;;;;;;;;;;;102.80;1920.00;;;;;;5113643;28;19915;-80
2021/03/04 02:41:13;;;;;;;;;;;102.90;1894.40;;;;;;5095426;28;19903;-79
2021/03/04 02:43:39;;;;;;;;;;;103.00;1868.80;;;;;;5120045;27;19911;-80
2021/03/04 02:46:06;;;;;;;;;;;103.00;1868.80;;;;;;5113776;28;19966;-80
2021/03/04 02:48:33;;;;;;;;;;;102.80;1894.40;;;;;;5113597;28;19910;-78
2021/03/04 02:50:59;;;;;;;;;;;102.90;1868.80;;;;;;5113596;28;20388;-79
2021/03/04 02:53:25;;;;;;;;;;;102.80;1894.40;;;;;;5113455;28;20262;-79
2021/03/04 02:55:51;;;;;;;;;;;102.90;1894.40;;;;;;5094993;28;19916;-79
2021/03/04 02:58:18;;;;;;;;;;;103.00;1894.40;;;;;;5113250;28;20354;-80
2021/03/04 03:00:43;;;;;;;;;;;103.00;1868.80;;;;;;5113364;28;20357;-80
2021/03/04 03:03:10;;;;;;;;;;;103.00;1868.80;;;;;;5113241;28;19933;-79
2021/03/04 03:05:37;;;;;;;;;;;103.10;1868.80;;;;;;5105291;28;19920;-80
2021/03/04 03:08:03;;;;;;;;;;;103.20;1843.20;;;;;;5113334;28;20031;-80
2021/03/04 03:10:29;;;;;;;;;;;103.20;1843.20;;;;;;5129249;28;19908;-80
2021/03/04 03:13:00;;;;;;;;;;;103.20;1843.20;;;;;;5113078;28;19930;-80
2021/03/04 03:15:26;;;;;;;;;;;128.00;1868.80;;;;;;5124410;28;20281;-80
2021/03/04 03:17:52;;;;;;;;;;;128.10;1868.80;;;;;;5113263;28;19904;-80
2021/03/04 03:20:19;;;;;;;;;;;128.20;1868.80;;;;;;5113024;28;19904;-79
2021/03/04 03:22:49;;;;;;;;;;;128.40;1868.80;;;;;;5113354;28;19945;-80
2021/03/04 03:25:15;;;;;;;;;;;128.40;1843.20;;;;;;5095287;28;19904;-81
2021/03/04 03:27:41;;;;;;;;;;;128.50;1843.20;;;;;;5094158;28;19908;-80
2021/03/04 03:30:08;;;;;;;;;;;128.60;1817.60;;;;;;5133304;27;19904;-80
2021/03/04 03:32:34;;;;;;;;;;;128.70;1843.20;;;;;;5114605;28;19904;-80
2021/03/04 03:35:01;;;;;;;;;;;128.60;1868.80;;;;;;5117181;28;20530;-80
2021/03/04 03:37:28;;;;;;;;;;;128.30;1920.00;;;;;;5117241;28;19908;-80
2021/03/04 03:39:55;;;;;;;;;;;128.00;1945.60;;;;;;5124726;27;19910;-80
2021/03/04 03:42:21;;;;;;;;;;;128.10;1945.60;;;;;;5098633;28;19907;-80
2021/03/04 03:44:47;;;;;;;;;;;128.40;1920.00;;;;;;5117034;28;19956;-80
2021/03/04 03:47:13;;;;;;;;;;;128.30;1920.00;;;;;;5098701;28;19911;-79
2021/03/04 03:49:39;;;;;;;;;;;128.20;1920.00;;;;;;5131876;27;19950;-80
2021/03/04 03:52:05;;;;;;;;;;;128.10;1920.00;;;;;;5116964;28;19947;-79
2021/03/04 03:54:31;;;;;;;;;;;128.20;1920.00;;;;;;5116756;28;20400;-80
2021/03/04 03:56:58;;;;;;;;;;;128.10;1920.00;;;;;;5116600;28;19957;-80
2021/03/04 03:59:24;;;;;;;;;;;103.30;1894.40;;;;;;5127810;27;20357;-80
2021/03/04 04:01:50;;;;;;;;;;;103.10;1920.00;;;;;;5116708;28;19994;-80
2021/03/04 04:04:16;;;;;;;;;;;103.10;1945.60;;;;;;5096319;28;20004;-80
2021/03/04 04:06:42;;;;;;;;;;;103.10;1971.20;;;;;;5098420;28;19907;-79
2021/03/04 04:09:08;;;;;;;;;;;103.30;1971.20;;;;;;5116557;28;19908;-79
2021/03/04 04:11:33;;;;;;;;;;;103.20;1996.80;;;;;;5116215;28;19910;-79
2021/03/04 04:13:59;;;;;;;;;;;103.10;1996.80;;;;;;5116274;28;19916;-79
2021/03/04 04:16:25;;;;;;;;;;;103.00;2022.40;;;;;;5116426;28;19911;-79
2021/03/04 04:18:51;;;;;;;;;;;103.00;2022.40;;;;;;5116296;28;19907;-79
2021/03/04 04:21:17;;;;;;;;;;;102.80;2073.60;;;;;;5116150;28;19904;-79
2021/03/04 04:23:43;;;;;;;;;;;102.90;2048.00;;;;;;5116886;28;19947;-79
2021/03/04 04:26:09;;;;;;;;;;;103.10;2022.40;;;;;;5131455;27;19904;-80
2021/03/04 04:28:35;;;;;;;;;;;103.20;1996.80;;;;;;5115445;28;19903;-80
2021/03/04 04:31:00;;;;;;;;;;;103.20;1996.80;;;;;;5097966;28;19908;-79
2021/03/04 04:33:26;;;;;;;;;;;103.20;1996.80;;;;;;5113448;28;19912;-79
2021/03/04 04:35:51;;;;;;;;;;;103.20;1971.20;;;;;;5106617;28;20000;-79
2021/03/04 04:38:17;;;;;;;;;;;103.20;1996.80;;;;;;5130622;27;20416;-79
2021/03/04 04:40:43;;;;;;;;;;;103.30;1971.20;;;;;;5115996;28;19910;-79
2021/03/04 04:43:09;;;;;;;;;;;103.20;1996.80;;;;;;5115693;28;19982;-79
2021/03/04 04:45:34;;;;;;;;;;;103.10;2022.40;;;;;;5115644;28;19912;-79
2021/03/04 04:48:00;;;;;;;;;;;103.10;2022.40;;;;;;5115964;28;20236;-79
2021/03/04 04:50:25;;;;;;;;;;;103.10;1996.80;;;;;;5115845;28;19910;-79
2021/03/04 04:52:51;;;;;;;;;;;103.10;2022.40;;;;;;5097390;28;19903;-79
2021/03/04 04:55:16;;;;;;;;;;;103.20;2022.40;;;;;;5115745;28;20372;-80
2021/03/04 04:57:42;;;;;;;;;;;103.00;2048.00;;;;;;5115545;28;19910;-80
2021/03/04 05:00:09;;;;;;;;;;;103.00;1996.80;;;;;;5115526;28;19911;-79
2021/03/04 05:02:34;;;;;;;;;;;103.10;1971.20;;;;;;5096738;28;19903;-80
2021/03/04 05:05:00;;;;;;;;;;;103.10;1971.20;;;;;;5115169;28;20030;-79
2021/03/04 05:07:25;;;;;;;;;;;102.90;1996.80;;;;;;5097274;28;20377;-79
2021/03/04 05:09:51;;;;;;;;;;;103.00;1971.20;;;;;;5097102;28;19911;-79
2021/03/04 05:12:17;;;;;;;;;;;102.90;1971.20;;;;;;5094159;28;19903;-78
2021/03/04 05:14:42;;;;;;;;;;;102.70;1971.20;;;;;;5096780;28;19911;-79
2021/03/04 05:17:08;;;;;;;;;;;102.70;1971.20;;;;;;5097041;28;19903;-79
2021/03/04 05:19:33;;;;;;;;;;;102.60;1971.20;;;;;;5115054;28;19904;-79
2021/03/04 05:21:59;;;;;;;;;;;77.70;2022.40;;;;;;5096922;28;19903;-79
2021/03/04 05:24:24;;;;;;;;;;;77.70;2022.40;;;;;;5096905;28;19911;-79
2021/03/04 05:26:50;;;;;;;;;;;102.50;2022.40;;;;;;5095139;28;19969;-79
2021/03/04 05:29:16;;;;;;;;;;;102.60;1996.80;;;;;;5096835;28;19904;-79
2021/03/04 05:31:41;;;;;;;;;;;102.70;1996.80;;;;;;5105938;28;19960;-79
2021/03/04 05:34:07;;;;;;;;;;;102.70;1996.80;;;;;;5119102;27;19920;-80
2021/03/04 05:36:32;;;;;;;;;;;102.70;1971.20;;;;;;5114693;28;19908;-79
2021/03/04 05:38:58;;;;;;;;;;;102.90;1971.20;;;;;;5114879;28;20015;-79
2021/03/04 05:41:24;;;;;;;;;;;103.20;1996.80;;;;;;5114878;28;19904;-79
2021/03/04 05:43:50;;;;;;;;;;;103.30;1971.20;;;;;;5114715;28;20002;-80
2021/03/04 05:46:18;;;;;;;;;;;128.20;1996.80;;;;;;5114730;28;19964;-79
2021/03/04 05:48:44;;;;;;;;;;;128.40;1996.80;;;;;;5081479;28;19961;-79
2021/03/04 05:51:12;;;;;;;;;;;128.50;1971.20;;;;;;5111333;28;19907;-80
2021/03/04 05:53:39;;;;;;;;;;;128.60;1971.20;;;;;;5114462;28;20006;-80
2021/03/04 05:56:05;;;;;;;;;;;128.60;1971.20;;;;;;5114364;28;20011;-79
2021/03/04 05:58:30;;;;;;;;;;;128.60;1971.20;;;;;;5125065;27;20023;-79
2021/03/04 06:00:56;;;;;;;;;;;128.80;1945.60;;;;;;5110643;28;19904;-79
2021/03/04 06:03:22;;;;;;;;;;;128.80;1945.60;;;;;;5114121;28;19904;-79
2021/03/04 06:05:48;;;;;;;;;;;128.80;1945.60;;;;;;5113988;28;19920;-79
2021/03/04 06:08:14;;;;;;;;;;;128.90;1971.20;;;;;;5114420;28;19911;-79
2021/03/04 06:10:39;;;;;;;;;;;128.80;1971.20;;;;;;5114165;28;19903;-79
2021/03/04 06:13:05;;;;;;;;;;;128.90;1971.20;;;;;;5114006;28;19904;-79
2021/03/04 06:15:31;;;;;;;;;;;153.60;1945.60;;;;;;5113927;28;20368;-79
2021/03/04 06:17:59;;;;;;;;;;;153.60;1945.60;;;;;;5095639;28;19990;-79
2021/03/04 06:20:35;;;;;;;;;;;153.60;1971.20;;;;;;5111380;28;20398;-79
2021/03/04 06:23:01;;;;;;;;;;;153.70;1971.20;;;;;;5095701;28;19907;-81
2021/03/04 06:25:26;;;;;;;;;;;153.80;1945.60;;;;;;5114344;28;20280;-81
2021/03/04 06:27:52;;;;;;;;;;;153.80;1945.60;;;;;;5095715;28;19946;-81
2021/03/04 06:30:17;;;;;;;;;;;153.80;1945.60;;;;;;5113650;28;20238;-80
2021/03/04 06:33:03;;;;;;;;;;;153.90;1945.60;;;;;;5095546;28;19903;-79
2021/03/04 06:35:30;;;;;;;;;;;153.90;1945.60;;;;;;5113596;28;20018;-76
2021/03/04 06:37:55;;;;;;;;;;;154.00;1920.00;;;;;;5105637;28;19958;-79
2021/03/04 06:40:23;;;;;;;;;;;154.00;1920.00;;;;;;5113424;28;20369;-78
2021/03/04 06:42:48;;;;;;;;;;;154.10;1945.60;;;;;;5113698;28;19904;-80
2021/03/04 06:45:24;;;;;;;;;;;154.10;1945.60;;;;;;5113553;28;20366;-79
2021/03/04 06:47:50;;;;;;;;;;;154.10;1945.60;;;;;;5111249;28;19973;-77
2021/03/04 06:50:25;;;;;;;;;;;154.20;1945.60;;;;;;5095430;28;19949;-78
2021/03/04 06:52:51;;;;;;;;;;;154.40;1920.00;;;;;;5127717;27;19908;-78
2021/03/04 06:55:17;;;;;;;;;;;154.40;1920.00;;;;;;5095055;28;19922;-78
2021/03/04 06:57:57;;;;;;;;;;;154.40;1894.40;;;;;;5113123;28;19949;-77
2021/03/04 07:00:22;;;;;;;;;;;154.50;1894.40;;;;;;5112809;28;20368;-77
2021/03/04 07:02:51;;;;;;;;;;;154.50;1894.40;;;;;;5094720;28;19916;-79
2021/03/04 07:05:17;;;;;;;;;;;154.50;1894.40;;;;;;5113096;28;19922;-77
2021/03/04 07:07:44;;;;;;;;;;;179.20;1868.80;;;;;;5113170;28;19908;-77
2021/03/04 07:10:11;;;;;;;;;;;179.20;1868.80;;;;;;5113319;28;20039;-76
2021/03/04 07:12:37;;;;;;;;;;;179.40;1868.80;;;;;;5110419;28;19972;-76
2021/03/04 07:15:03;;;;;;;;;;;179.40;1868.80;;;;;;5113213;28;19916;-75
2021/03/04 07:17:28;;;;;;;;;;;179.50;1843.20;;;;;;5082498;28;19940;-76
2021/03/04 07:19:56;;;;;;;;;;;179.60;1843.20;;;;;;5083166;28;19934;-75
2021/03/04 07:22:25;;;;;;;;;;;179.70;1843.20;;;;;;5097384;28;20002;-76
2021/03/04 07:24:51;;;;;;;;;;;179.80;1843.20;;;;;;5100394;28;19907;-76
2021/03/04 07:27:17;;;;;;;;;;;179.90;1843.20;;;;;;5108000;28;19904;-77
2021/03/04 07:29:43;;;;;;;;;;;179.90;1817.60;;;;;;5120310;28;19943;-75
2021/03/04 07:32:10;;;;;;;;;;;179.90;1817.60;;;;;;5109929;28;19903;-74
2021/03/04 07:34:35;;;;;;;;;;;180.10;1817.60;;;;;;5108711;28;20010;-75
2021/03/04 07:37:02;;;;;;;;;;;180.00;1792.00;;;;;;5108645;28;20344;-75
2021/03/04 07:39:28;;;;;;;;;;;180.10;1817.60;;;;;;5109647;28;19904;-74
2021/03/04 07:41:54;;;;;;;;;;;204.80;1792.00;;;;;;5097253;28;19911;-75
2021/03/04 07:44:24;;;;;;;;;;;204.80;1792.00;;;;;;5109910;28;19916;-74
2021/03/04 07:46:50;;;;;;;;;;;204.90;1792.00;;;;;;5104715;28;19904;-76
2021/03/04 07:49:16;;;;;;;;;;;205.00;1792.00;;;;;;5111647;28;19980;-75
2021/03/04 07:51:46;;;;;;;;;;;205.10;1792.00;;;;;;5108558;28;19942;-76
2021/03/04 07:54:12;;;;;;;;;;;205.10;1766.40;;;;;;5104089;28;20270;-77
2021/03/04 07:56:38;;;;;;;;;;;205.10;1766.40;;;;;;5094201;28;19911;-74
2021/03/04 07:59:21;;;;;;;;;;;205.30;1766.40;;;;;;5102140;28;19907;-77
2021/03/04 08:02:00;;;;;;;;;;;205.30;1740.80;;;;;;5099918;28;20003;-75
2021/03/04 08:04:27;;;;;;;;;;;205.40;1740.80;;;;;;5103733;28;20005;-75
2021/03/04 08:06:53;;;;;;;;;;;205.60;1715.20;;;;;;5101366;28;19908;-79
2021/03/04 08:09:32;;;;;;;;;;;205.70;1715.20;;;;;;5103282;28;19997;-79
2021/03/04 08:12:11;;;;;;;;;;;230.40;1689.60;;;;;;5102762;28;19911;-82
2021/03/04 08:14:38;;;;;;;;;;;230.40;1689.60;;;;;;5101876;28;19955;-81
2021/03/04 08:17:04;;;;;;;;;;;205.70;1689.60;;;;;;5107620;28;19904;-80
2021/03/04 08:19:30;;;;;;;;;;;205.70;1740.80;;;;;;5106435;28;19925;-81
2021/03/04 08:22:08;;;;;;;;;;;230.40;1715.20;;;;;;5113009;28;19908;-79
2021/03/04 08:24:38;;;;;;;;;;;230.40;1715.20;;;;;;5090123;28;19904;-78
2021/03/04 08:27:04;;;;;;;;;;;230.60;1689.60;;;;;;5106488;28;19904;-76
2021/03/04 08:29:30;;;;;;;;;;;230.70;1664.00;;;;;;5110165;28;19957;-78
2021/03/04 08:31:56;;;;;;;;;;;230.70;1664.00;;;;;;5113743;28;19947;-77
2021/03/04 08:34:22;;;;;;;;;;;230.80;1689.60;;;;;;5116330;28;19915;-78
2021/03/04 08:36:51;;;;;;;;;;;230.90;1664.00;;;;;;5107499;28;19912;-77
2021/03/04 08:39:17;;;;;;;;;;;231.10;1664.00;;;;;;5100898;28;19910;-79
2021/03/04 08:41:43;;;;;;;;;;;231.30;1638.40;;;;;;5108454;28;19965;-80
2021/03/04 08:44:16;;;;;;;;;;;256.00;1612.80;;;;;;5106964;28;20357;-80
2021/03/04 08:46:42;;;;;;;;;;;256.10;1612.80;;;;;;5100730;28;19908;-80
2021/03/04 08:49:08;;;;;;;;;;;256.20;1587.20;;;;;;5109390;27;20026;-79
2021/03/04 08:51:43;;;;;;;;;;;256.20;1587.20;;;;;;5129902;27;20376;-80
2021/03/04 08:54:18;;;;;;;;;;;256.50;1536.00;;;;;;5073967;28;19916;-79
2021/03/04 08:56:57;;;;;;;;;;;256.50;1561.60;;;;;;5114830;27;20002;-80
2021/03/04 08:59:24;;;;;;;;;;;256.60;1561.60;;;;;;5089162;28;19915;-78
2021/03/04 09:01:50;;;;;;;;;;;256.60;1561.60;;;;;;5116084;28;19910;-78
2021/03/04 09:04:16;;;;;;;;;;;256.70;1561.60;;;;;;5115837;28;19915;-83
2021/03/04 09:06:42;;;;;;;;;;;256.70;1561.60;;;;;;5116488;28;19911;-82
2021/03/04 09:09:07;;;;;;;;;;;256.80;1561.60;;;;;;5097979;28;19918;-82
2021/03/04 09:11:34;;;;;;;;;;;281.60;1561.60;;;;;;5116156;28;20276;-81
2021/03/04 09:14:03;;;;;;;;;;;281.70;1536.00;;;;;;5094820;28;19912;-81
2021/03/04 09:16:29;;;;;;;;;;;281.80;1587.20;;;;;;5111493;28;19911;-82
2021/03/04 09:18:55;;;;;;;;;;;281.90;1561.60;;;;;;5107864;28;19904;-79
2021/03/04 09:21:20;;;;;;;;;;;282.00;1561.60;;;;;;5090788;28;19933;-79
2021/03/04 09:23:46;;;;;;;;;;;282.10;1536.00;;;;;;5092467;28;19908;-77
2021/03/04 09:26:11;;;;;;;;;;;282.20;1536.00;;;;;;5112435;28;19912;-77
2021/03/04 09:28:38;;;;;;;;;;;282.30;1536.00;;;;;;5115540;28;19904;-80
2021/03/04 09:31:14;;;;;;;;;;;282.40;1510.40;;;;;;5097025;28;20006;-80
2021/03/04 09:33:40;;;;;;;;;;;282.40;1536.00;;;;;;5112482;28;19969;-80
2021/03/04 09:36:06;;;;;;;;;;;282.50;1536.00;;;;;;5111766;28;20357;-80
2021/03/04 09:38:33;;;;;;;;;;;307.20;1561.60;;;;;;5096772;28;19903;-79
2021/03/04 09:41:09;;;;;;;;;;;307.30;1561.60;;;;;;5114830;28;20387;-79
2021/03/04 09:43:42;;;;;;;;;;;307.50;1536.00;;;;;;5107785;28;20364;-80
2021/03/04 09:46:07;;;;;;;;;;;307.60;1510.40;;;;;;5107096;28;20348;-79
2021/03/04 09:48:35;;;;;;;;;;;307.70;1510.40;;;;;;5096599;28;19947;-80
2021/03/04 09:51:01;;;;;;;;;;;307.90;1510.40;;;;;;5115115;28;20361;-81
2021/03/04 09:53:27;;;;;;;;;;;308.00;1484.80;;;;;;5115042;28;19915;-77
2021/03/04 09:55:52;;;;;;;;;;;308.10;1459.20;;;;;;5114729;28;19908;-80
2021/03/04 09:58:22;;;;;;;;;;;332.80;1484.80;;;;;;5114974;28;20015;-81
2021/03/04 10:00:58;;;;;;;;;;;332.90;1484.80;;;;;;5096496;28;19907;-81
2021/03/04 10:03:35;;;;;;;;;;;333.10;1459.20;;;;;;5114753;28;19918;-80
2021/03/04 10:06:01;;;;;;;;;;;333.20;1459.20;;;;;;5108037;28;19981;-79
2021/03/04 10:08:36;;;;;;;;;;;333.40;1382.40;;;;;;5114364;28;19904;-81
2021/03/04 10:11:01;;;;;;;;;;;333.50;1382.40;;;;;;5113011;28;19911;-81
2021/03/04 10:13:27;;;;;;;;;;;333.70;1331.20;;;;;;5114017;28;19914;-81
2021/03/04 10:15:53;;;;;;;;;;;358.40;1305.60;;;;;;5114274;28;19912;-80
2021/03/04 10:18:19;;;;;;;;;;;358.60;1280.00;;;;;;5114576;28;19907;-81
2021/03/04 10:20:46;;;;;;;;;;;358.70;1254.40;;;;;;5114558;28;19910;-79
2021/03/04 10:23:12;;;;;;;;;;;358.80;1228.80;;;;;;5130251;27;19908;-80
2021/03/04 10:25:37;;;;;;;;;;;359.00;1203.20;;;;;;5096296;28;19904;-77
2021/03/04 10:28:03;;;;;;;;;;;359.20;1177.60;;;;;;5130233;27;19904;-80
2021/03/04 10:30:29;;;;;;;;;;;384.00;1177.60;;;;;;5114143;28;19961;-78
2021/03/04 10:32:55;;;;;;;;;;;384.20;1177.60;;;;;;5114160;28;19927;-83
2021/03/04 10:35:21;;;;;;;;;;;384.30;1100.80;;;;;;5113632;28;20333;-80
2021/03/04 10:37:47;;;;;;;;;;;384.60;1075.20;;;;;;5096076;28;19908;-79
2021/03/04 10:40:13;;;;;;;;;;;384.80;1100.80;;;;;;5114089;28;20375;-78
2021/03/04 10:42:39;;;;;;;;;;;384.90;1049.60;;;;;;5114109;28;19907;-78
2021/03/04 10:45:06;;;;;;;;;;;409.90;1024.00;;;;;;5113893;28;20276;-78
2021/03/04 10:47:31;;;;;;;;;;;410.00;998.40;;;;;;5111163;28;19908;-77
2021/03/04 10:49:57;;;;;;;;;;;410.00;1024.00;;;;;;5114107;28;19911;-77
2021/03/04 10:52:23;;;;;;;;;;;409.90;998.40;;;;;;5113942;28;20387;-80
2021/03/04 10:54:50;;;;;;;;;;;410.00;972.80;;;;;;5113700;28;19919;-79
2021/03/04 10:57:15;;;;;;;;;;;410.00;972.80;;;;;;5106359;28;19904;-79
2021/03/04 10:59:41;;;;;;;;;;;410.10;998.40;;;;;;5113332;28;19914;-80
2021/03/04 11:02:06;;;;;;;;;;;410.20;972.80;;;;;;5113240;28;20375;-77
2021/03/04 11:04:32;;;;;;;;;;;410.40;972.80;;;;;;5112566;28;19915;-78
2021/03/04 11:06:57;;;;;;;;;;;410.50;947.20;;;;;;5112935;28;19950;-80
2021/03/04 11:09:24;;;;;;;;;;;435.30;947.20;;;;;;5112955;28;19923;-81
2021/03/04 11:11:49;;;;;;;;;;;435.30;947.20;;;;;;5113120;28;19911;-80
2021/03/04 11:14:15;;;;;;;;;;;435.50;921.60;;;;;;5113218;28;20356;-78
2021/03/04 11:16:41;;;;;;;;;;;435.70;844.80;;;;;;5113246;28;19904;-77
2021/03/04 11:19:08;;;;;;;;;;;435.60;870.40;;;;;;5112637;28;19908;-78
2021/03/04 11:21:34;;;;;;;;;;;435.70;896.00;;;;;;5112919;28;19904;-79
2021/03/04 11:23:59;;;;;;;;;;;435.60;844.80;;;;;;5112762;28;19904;-78
2021/03/04 11:26:25;;;;;;;;;;;435.80;870.40;;;;;;5112479;28;19903;-78
2021/03/04 11:28:51;;;;;;;;;;;435.80;870.40;;;;;;5112647;28;19908;-76
2021/03/04 11:31:16;;;;;;;;;;;435.80;870.40;;;;;;5112653;28;19904;-78
2021/03/04 11:33:42;;;;;;;;;;;435.90;844.80;;;;;;5112668;28;20280;-77
2021/03/04 11:36:07;;;;;;;;;;;435.90;691.20;;;;;;5113653;28;19953;-78
2021/03/04 11:38:33;;;;;;;;;;;436.10;665.60;;;;;;5113360;28;20366;-77
2021/03/04 11:40:58;;;;;;;;;;;436.10;640.00;;;;;;5095192;28;19911;-78
2021/03/04 11:43:24;;;;;;;;;;;460.80;716.80;;;;;;5113220;28;19910;-78
2021/03/04 11:45:50;;;;;;;;;;;460.90;716.80;;;;;;5113272;28;19999;-78
2021/03/04 11:48:15;;;;;;;;;;;460.90;742.40;;;;;;5111912;28;19908;-78
2021/03/04 11:50:41;;;;;;;;;;;460.90;716.80;;;;;;5112727;28;19914;-79
2021/03/04 11:53:06;;;;;;;;;;;460.80;793.60;;;;;;5112640;28;19904;-79
2021/03/04 11:55:35;;;;;;;;;;;461.10;819.20;;;;;;5112779;28;20289;-78
2021/03/04 11:58:00;;;;;;;;;;;461.20;819.20;;;;;;5097809;28;19912;-79
2021/03/04 12:00:26;;;;;;;;;;;461.20;742.40;;;;;;5112695;28;19911;-77
2021/03/04 12:02:52;;;;;;;;;;;461.20;768.00;;;;;;5115880;28;19911;-80
2021/03/04 12:05:17;;;;;;;;;;;461.30;742.40;;;;;;5124742;27;19973;-78
2021/03/04 12:07:43;;;;;;;;;;;461.40;768.00;;;;;;5125682;27;19912;-80
2021/03/04 12:10:09;;;;;;;;;;;461.50;768.00;;;;;;5112733;28;19907;-80
2021/03/04 12:12:35;;;;;;;;;;;461.70;691.20;;;;;;5112388;28;19911;-79
2021/03/04 12:15:00;;;;;;;;;;;486.50;691.20;;;;;;5116962;28;20315;-80
2021/03/04 12:17:26;;;;;;;;;;;486.80;691.20;;;;;;5112273;28;19951;-80
2021/03/04 12:19:51;;;;;;;;;;;486.70;716.80;;;;;;5112472;28;19918;-76
2021/03/04 12:22:17;;;;;;;;;;;486.80;691.20;;;;;;5112332;28;19957;-76
2021/03/04 12:24:43;;;;;;;;;;;486.60;691.20;;;;;;5109229;27;20281;-77
2021/03/04 12:27:08;;;;;;;;;;;486.60;665.60;;;;;;5100781;27;19908;-79
2021/03/04 12:29:34;;;;;;;;;;;486.70;691.20;;;;;;5111597;27;19918;-78
2021/03/04 12:32:00;;;;;;;;;;;486.80;665.60;;;;;;5113229;28;20250;-82
2021/03/04 12:34:25;;;;;;;;;;;486.80;691.20;;;;;;5115125;28;19942;-84
2021/03/04 12:36:51;;;;;;;;;;;487.00;691.20;;;;;;5091801;28;20262;-84
2021/03/04 12:39:18;;;;;;;;;;;487.00;691.20;;;;;;5111143;28;19903;-83
2021/03/04 12:41:43;;;;;;;;;;;487.00;665.60;;;;;;5091416;28;20358;-82
2021/03/04 12:44:09;;;;;;;;;;;487.00;665.60;;;;;;5096124;28;19915;-83
2021/03/04 12:46:35;;;;;;;;;;;487.10;691.20;;;;;;5121481;27;19960;-78
2021/03/04 12:49:01;;;;;;;;;;;487.10;665.60;;;;;;5115970;28;19911;-77
2021/03/04 12:51:27;;;;;;;;;;;487.20;691.20;;;;;;5115312;27;20046;-81
2021/03/04 12:53:52;;;;;;;;;;;487.20;665.60;;;;;;5124609;27;19922;-80
2021/03/04 12:56:18;;;;;;;;;;;487.30;665.60;;;;;;5111596;27;19904;-81
2021/03/04 12:58:43;;;;;;;;;;;487.00;665.60;;;;;;5129105;27;20394;-80
2021/03/04 13:01:09;;;;;;;;;;;487.30;691.20;;;;;;5126119;27;20375;-81
2021/03/04 13:03:35;;;;;;;;;;;512.10;665.60;;;;;;5115164;28;19911;-80
2021/03/04 13:06:01;;;;;;;;;;;487.20;691.20;;;;;;5115648;28;19978;-79
2021/03/04 13:08:27;;;;;;;;;;;512.00;665.60;;;;;;5115431;28;19911;-80
2021/03/04 13:10:52;;;;;;;;;;;512.00;665.60;;;;;;5120028;27;19993;-79
2021/03/04 13:13:18;;;;;;;;;;;512.00;691.20;;;;;;5115313;28;20002;-80
2021/03/04 13:15:43;;;;;;;;;;;512.00;640.00;;;;;;5114291;28;19930;-79
2021/03/04 13:18:09;;;;;;;;;;;512.00;640.00;;;;;;5108440;28;19916;-79
2021/03/04 13:20:34;;;;;;;;;;;512.00;640.00;;;;;;5114689;28;20432;-77
2021/03/04 13:23:00;;;;;;;;;;;487.30;665.60;;;;;;5106788;28;19907;-76
2021/03/04 13:25:25;;;;;;;;;;;512.00;640.00;;;;;;5096610;28;19962;-78
2021/03/04 13:27:51;;;;;;;;;;;487.30;614.40;;;;;;5112561;28;19908;-79
2021/03/04 13:30:17;;;;;;;;;;;512.00;640.00;;;;;;5113205;28;19990;-78
2021/03/04 13:32:43;;;;;;;;;;;487.30;614.40;;;;;;5114373;28;19956;-78
2021/03/04 13:35:08;;;;;;;;;;;487.30;614.40;;;;;;5108384;28;19995;-76
2021/03/04 13:37:34;;;;;;;;;;;512.00;614.40;;;;;;5110800;28;19956;-79
2021/03/04 13:40:00;;;;;;;;;;;487.30;614.40;;;;;;5107495;28;19951;-78